OOCL Atlanta — VRAR6 — position and weather

sailwx.info

Track history (hours):
 
Tides and Currents Weather Stations Pressure Air Temp Water Temp Dewpoint Dewpoint Depression Visibility Wind Speed Wind Dir Waves Ship Positions

OOCL Atlanta

Last reported at 2016-Apr-30 11:07 UTC. Time now 2016-May-06 09:18 UTC.
Position N 34°25' E 130°06'.

Length 323 m; beam 42.8 m; draft 14.5 m.

Type: Cargo ship. MMSI: 477920300.

Date/timePositionNaut miles runAvg speedWind from/ knotsBaromVisibWave heightAir tempDewpointWater temp
2016-Apr-30 11:07N 34°25' E 130°06'82921.0
2016-Apr-28 19:33N 24°22' E 119°14'5020.3
2016-Apr-28 17:06N 23°49' E 118°33'3720.8
2016-Apr-28 15:19N 23°30' E 117°58'7520.0
2016-Apr-28 11:33N 22°46' E 116°52'12119.6
2016-Apr-28 05:22N 22°18' E 114°44'16 0.8
2016-Apr-27 09:21N 22°12' E 114°27'1212.9
2016-Apr-27 08:26N 22°07' E 114°16'1313.2
2016-Apr-27 07:27N 22°16' E 114°06'5 0.6
2016-Apr-26 23:26N 22°21' E 114°07'0 0.0
2016-Apr-26 22:14N 22°21' E 114°07'0 0.0
2016-Apr-26 21:32N 22°21' E 114°07'0 0.0
2016-Apr-26 20:32N 22°21' E 114°07'0 0.0
2016-Apr-26 19:29N 22°21' E 114°07'0 0.0
2016-Apr-26 18:29N 22°21' E 114°07'0 0.0
2016-Apr-26 16:17N 22°21' E 114°07'0 0.0
2016-Apr-26 15:29N 22°21' E 114°07'2 1.7
2016-Apr-26 14:34N 22°19' E 114°07'2 0.1
2016-Apr-25 18:31N 22°20' E 114°05'12 9.2
2016-Apr-25 17:14N 22°11' E 114°12'6 6.5
2016-Apr-25 16:21N 22°08' E 114°18'6 7.4
2016-Apr-25 15:33N 22°05' E 114°23'  
Track history (hours):
 
Tides and Currents Weather Stations Pressure Air Temp Water Temp Dewpoint Dewpoint Depression Visibility Wind Speed Wind Dir Waves Ship Positions

OOCL Atlanta

Last reported at 2016-Apr-30 11:07 UTC. Time now 2016-May-06 09:18 UTC.
Position N 34°25' E 130°06'.

Length 323 m; beam 42.8 m; draft 14.5 m.

Type: Cargo ship. MMSI: 477920300.

Date/timePositionNaut miles runAvg speedWind from/ knotsBaromVisibWave heightAir tempDewpointWater temp
2016-Apr-30 11:07N 34°25' E 130°06'82921.0
2016-Apr-28 19:33N 24°22' E 119°14'5020.3
2016-Apr-28 17:06N 23°49' E 118°33'3720.8
2016-Apr-28 15:19N 23°30' E 117°58'7520.0
2016-Apr-28 11:33N 22°46' E 116°52'12119.6
2016-Apr-28 05:22N 22°18' E 114°44'16 0.8
2016-Apr-27 09:21N 22°12' E 114°27'1212.9
2016-Apr-27 08:26N 22°07' E 114°16'1313.2
2016-Apr-27 07:27N 22°16' E 114°06'5 0.6
2016-Apr-26 23:26N 22°21' E 114°07'0 0.0
2016-Apr-26 22:14N 22°21' E 114°07'0 0.0
2016-Apr-26 21:32N 22°21' E 114°07'0 0.0
2016-Apr-26 20:32N 22°21' E 114°07'0 0.0
2016-Apr-26 19:29N 22°21' E 114°07'0 0.0
2016-Apr-26 18:29N 22°21' E 114°07'0 0.0
2016-Apr-26 16:17N 22°21' E 114°07'0 0.0
2016-Apr-26 15:29N 22°21' E 114°07'2 1.7
2016-Apr-26 14:34N 22°19' E 114°07'2 0.1
2016-Apr-25 18:31N 22°20' E 114°05'12 9.2
2016-Apr-25 17:14N 22°11' E 114°12'6 6.5
2016-Apr-25 16:21N 22°08' E 114°18'6 7.4
2016-Apr-25 15:33N 22°05' E 114°23'  

Dump ship's entire track history